createdAt,value
2023-05-14T00:02:28.296Z,99877.09
2023-05-14T00:04:58.816Z,99882.50
2023-05-14T00:07:30.914Z,99871.69
2023-05-14T00:10:19.250Z,99880.44
2023-05-14T00:12:49.957Z,99885.34
2023-05-14T00:15:18.555Z,99884.59
2023-05-14T00:17:48.270Z,99877.13
2023-05-14T00:20:16.741Z,99889.97
2023-05-14T00:22:45.581Z,99888.19
2023-05-14T00:25:13.965Z,99892.63
2023-05-14T00:27:42.845Z,99898.28
2023-05-14T00:30:14.336Z,99891.06
2023-05-14T00:32:43.128Z,99891.88
2023-05-14T00:35:11.756Z,99878.75
2023-05-14T00:37:40.897Z,99893.19
2023-05-14T00:40:13.098Z,99859.19
2023-05-14T00:42:41.792Z,99878.78
2023-05-14T00:45:14.354Z,99878.03
2023-05-14T00:47:43.167Z,99876.47
2023-05-14T00:50:15.231Z,99873.13
2023-05-14T00:52:44.879Z,99880.63
2023-05-14T00:55:17.536Z,99872.38
2023-05-14T00:57:46.654Z,99880.59
2023-05-14T01:00:19.208Z,99862.78
2023-05-14T01:02:48.180Z,99880.34
2023-05-14T01:05:17.288Z,99880.28
2023-05-14T01:07:55.761Z,99885.44
2023-05-14T01:10:32.195Z,99883.63
2023-05-14T01:13:08.003Z,99859.13
2023-05-14T01:15:41.488Z,99877.91
2023-05-14T01:18:12.251Z,99885.38
2023-05-14T01:20:40.896Z,99871.41
2023-05-14T01:23:11.621Z,99877.56
2023-05-14T01:25:41.208Z,99873.94
2023-05-14T01:28:19.454Z,99879.09
2023-05-14T01:30:55.480Z,99870.09
2023-05-14T01:33:27.751Z,99870.03
2023-05-14T01:35:58.779Z,99856.06
2023-05-14T01:38:30.857Z,99860.44
2023-05-14T01:41:00.608Z,99866.38
2023-05-14T01:43:30.243Z,99864.56
2023-05-14T01:45:59.394Z,99864.59
2023-05-14T01:48:30.018Z,99858.13
2023-05-14T01:50:59.354Z,99851.91
2023-05-14T01:53:30.258Z,99851.91
2023-05-14T01:55:59.603Z,99853.69
2023-05-14T01:58:28.482Z,99851.13
2023-05-14T02:00:56.823Z,99858.09
2023-05-14T02:03:25.850Z,99844.97
2023-05-14T02:05:54.802Z,99820.25
2023-05-14T02:08:23.825Z,99830.31
2023-05-14T02:10:54.937Z,99827.03
2023-05-14T02:13:26.768Z,99820.09
2023-05-14T02:15:55.653Z,99816.50
2023-05-14T02:18:24.554Z,99818.03
2023-05-14T02:20:53.608Z,99802.59
2023-05-14T02:23:31.059Z,99807.28
2023-05-14T02:26:09.807Z,99811.16
2023-05-14T02:28:38.815Z,99810.16
2023-05-14T02:31:08.148Z,99806.28
2023-05-14T02:33:37.153Z,99804.25
2023-05-14T02:36:05.704Z,99806.09
2023-05-14T02:38:34.755Z,99812.28
2023-05-14T02:41:03.851Z,99809.44
2023-05-14T02:43:34.884Z,99803.75
2023-05-14T02:46:03.970Z,99807.09
2023-05-14T02:48:32.961Z,99810.44
2023-05-14T02:51:01.714Z,99812.50
2023-05-14T02:53:30.609Z,99815.84
2023-05-14T02:55:59.388Z,99809.91
2023-05-14T02:58:28.634Z,99811.19
2023-05-14T03:00:58.921Z,99795.75
2023-05-14T03:03:27.896Z,99793.94
2023-05-14T03:05:57.263Z,99795.78
2023-05-14T03:08:32.006Z,99787.28
2023-05-14T03:11:01.210Z,99785.53
2023-05-14T03:13:30.123Z,99793.25
2023-05-14T03:16:00.545Z,99784.28
2023-05-14T03:18:30.813Z,99789.41
2023-05-14T03:20:59.689Z,99802.56
2023-05-14T03:23:28.408Z,99806.91
2023-05-14T03:25:56.951Z,99799.97
2023-05-14T03:28:28.468Z,99805.84
2023-05-14T03:30:57.360Z,99801.72
2023-05-14T03:33:27.652Z,99805.31
2023-05-14T03:35:56.602Z,99803.50
2023-05-14T03:38:25.512Z,99792.66
2023-05-14T03:40:53.887Z,99800.38
2023-05-14T03:43:22.778Z,99799.88
2023-05-14T03:45:52.873Z,99794.94
2023-05-14T03:48:22.310Z,99785.16
2023-05-14T03:50:56.444Z,99794.34
2023-05-14T03:53:25.521Z,99774.50
2023-05-14T03:55:54.632Z,99797.09
2023-05-14T03:58:23.488Z,99778.53
2023-05-14T04:01:13.304Z,99764.09
2023-05-14T04:03:51.528Z,99768.66
2023-05-14T04:06:21.810Z,99783.25
2023-05-14T04:08:50.333Z,99777.78
2023-05-14T04:11:19.386Z,99773.88
2023-05-14T04:13:49.564Z,99765.00
2023-05-14T04:16:18.862Z,99770.06
2023-05-14T04:18:59.469Z,99765.56
2023-05-14T04:21:37.786Z,99751.53
2023-05-14T04:24:07.214Z,99754.44
2023-05-14T04:26:38.767Z,99755.31
2023-05-14T04:29:07.175Z,99768.66
2023-05-14T04:31:38.602Z,99780.34
2023-05-14T04:34:12.093Z,99770.13
2023-05-14T04:36:47.530Z,99776.66
2023-05-14T04:39:28.840Z,99785.06
2023-05-14T04:41:57.715Z,99780.44
2023-05-14T04:44:26.875Z,99776.16
2023-05-14T04:46:58.493Z,99775.88
2023-05-14T04:49:27.664Z,99754.88
2023-05-14T04:51:59.201Z,99765.88
2023-05-14T04:54:28.641Z,99768.66
2023-05-14T04:57:09.186Z,99756.78
2023-05-14T04:59:37.848Z,99742.97
2023-05-14T05:02:25.581Z,99738.97
2023-05-14T05:04:54.112Z,99745.72
2023-05-14T05:07:25.140Z,99737.75
2023-05-14T05:09:54.092Z,99727.72
2023-05-14T05:12:23.809Z,99732.44
2023-05-14T05:14:52.354Z,99723.63
2023-05-14T05:17:24.259Z,99729.22
2023-05-14T05:20:00.070Z,99722.47
2023-05-14T05:22:33.962Z,99727.19
2023-05-14T05:25:05.574Z,99725.09
2023-05-14T05:27:55.492Z,99722.50
2023-05-14T05:30:25.152Z,99723.75
2023-05-14T05:33:20.596Z,99708.63
2023-05-14T05:36:11.136Z,99712.56
2023-05-14T05:38:41.560Z,99709.78
2023-05-14T05:41:12.317Z,99711.66
2023-05-14T05:43:46.140Z,99714.75
2023-05-14T05:46:31.927Z,99706.97
2023-05-14T05:49:09.770Z,99717.72
2023-05-14T05:51:41.581Z,99704.75
2023-05-14T05:54:15.735Z,99705.81
2023-05-14T05:56:47.304Z,99707.13
2023-05-14T05:59:19.830Z,99716.84
2023-05-14T06:01:53.932Z,99720.22
2023-05-14T06:04:34.923Z,99698.81
2023-05-14T06:07:18.903Z,99782.47
2023-05-14T06:09:56.023Z,99726.72
2023-05-14T06:12:33.606Z,99714.25
2023-05-14T06:15:09.673Z,99728.28
2023-05-14T06:17:39.054Z,99729.69
2023-05-14T06:20:23.680Z,99715.97
2023-05-14T06:22:56.384Z,99711.13
2023-05-14T06:25:38.514Z,99713.38
2023-05-14T06:28:45.266Z,99709.66
2023-05-14T06:31:28.208Z,99717.91
2023-05-14T06:37:03.758Z,99704.38
2023-05-14T06:40:11.559Z,99726.66
2023-05-14T06:43:00.803Z,99714.03
2023-05-14T06:45:50.572Z,99716.38
2023-05-14T06:48:35.684Z,99719.28
2023-05-14T06:51:13.518Z,99705.63
2023-05-14T06:53:47.495Z,99716.28
2023-05-14T06:56:31.316Z,99710.19
2023-05-14T06:59:46.448Z,99701.91
2023-05-14T07:02:39.238Z,99712.69
2023-05-14T07:06:13.897Z,99709.78
2023-05-14T07:09:02.785Z,99690.44
2023-05-14T07:12:01.178Z,99707.91
2023-05-14T07:14:57.896Z,99692.03
2023-05-14T07:17:57.335Z,99690.22
2023-05-14T07:20:45.621Z,99701.91
2023-05-14T07:23:29.104Z,99680.16
2023-05-14T07:26:31.820Z,99687.59
2023-05-14T07:29:21.228Z,99695.53
2023-05-14T07:32:58.577Z,99689.44
2023-05-14T07:35:48.340Z,99671.09
2023-05-14T07:38:32.519Z,99672.47
2023-05-14T07:41:19.928Z,99673.38
2023-05-14T07:44:08.794Z,99681.31
2023-05-14T07:46:43.819Z,99669.22
2023-05-14T07:49:15.266Z,99678.72
2023-05-14T07:52:09.788Z,99659.56
2023-05-14T07:55:09.413Z,99670.28
2023-05-14T08:02:34.963Z,99656.91
2023-05-14T08:05:03.146Z,99657.50
2023-05-14T08:10:33.475Z,99646.91
2023-05-14T08:13:31.300Z,99643.78
2023-05-14T08:16:08.153Z,99642.53
2023-05-14T08:18:39.157Z,99625.56
2023-05-14T08:21:18.781Z,99629.22
2023-05-14T08:24:02.855Z,99624.09
2023-05-14T08:26:33.621Z,99626.50
2023-05-14T08:29:11.015Z,99633.63
2023-05-14T08:32:00.247Z,99630.69
2023-05-14T08:34:30.680Z,99624.03
2023-05-14T08:37:01.860Z,99626.22
2023-05-14T08:39:42.786Z,99617.44
2023-05-14T08:42:15.041Z,99607.03
2023-05-14T08:44:52.952Z,99608.13
2023-05-14T08:47:31.638Z,99602.22
2023-05-14T08:50:12.520Z,99607.94
2023-05-14T08:53:23.519Z,99614.28
2023-05-14T08:56:03.261Z,99606.50
2023-05-14T09:02:34.560Z,99596.00
2023-05-14T09:05:09.335Z,99587.06
2023-05-14T09:07:41.614Z,99585.66
2023-05-14T09:10:18.177Z,99589.50
2023-05-14T09:13:02.831Z,99591.81
2023-05-14T09:15:41.723Z,99582.50
2023-05-14T09:18:21.347Z,99578.06
2023-05-14T09:20:53.282Z,99580.00
2023-05-14T09:23:29.190Z,99579.03
2023-05-14T09:26:05.712Z,99570.44
2023-05-14T09:28:36.135Z,99563.78
2023-05-14T09:31:06.936Z,99570.09
2023-05-14T09:33:37.075Z,99571.19
2023-05-14T09:36:06.398Z,99575.31
2023-05-14T09:38:38.702Z,99563.00
2023-05-14T09:41:07.614Z,99562.66
2023-05-14T09:43:45.810Z,99539.63
2023-05-14T09:46:30.836Z,99543.94
2023-05-14T09:49:04.704Z,99519.31
2023-05-14T09:51:45.719Z,99523.94
2023-05-14T09:54:34.166Z,99520.13
2023-05-14T09:57:08.345Z,99533.16
2023-05-14T09:59:58.993Z,99529.47
2023-05-14T10:02:52.068Z,99525.38
2023-05-14T10:05:34.863Z,99519.72
2023-05-14T10:08:15.146Z,99516.19
2023-05-14T10:10:47.557Z,99501.84
2023-05-14T10:13:22.233Z,99498.63
2023-05-14T10:16:07.977Z,99499.81
2023-05-14T10:18:57.411Z,99567.09
2023-05-14T10:21:50.577Z,99482.53
2023-05-14T10:27:23.530Z,99477.50
2023-05-14T10:33:12.700Z,99471.00
2023-05-14T10:39:05.327Z,99459.16
2023-05-14T10:41:36.140Z,99473.06
2023-05-14T10:44:10.700Z,99458.84
2023-05-14T10:46:39.825Z,99455.66
2023-05-14T10:49:39.837Z,99452.97
2023-05-14T10:52:13.639Z,99446.84
2023-05-14T10:54:50.778Z,99431.84
2023-05-14T10:57:23.567Z,99438.06
2023-05-14T11:00:00.674Z,99446.31
2023-05-14T11:02:37.718Z,99504.28
2023-05-14T11:05:13.067Z,99461.31
2023-05-14T11:07:49.136Z,99426.19
2023-05-14T11:10:23.987Z,99427.72
2023-05-14T11:12:58.457Z,99429.69
2023-05-14T11:15:50.300Z,99426.13
2023-05-14T11:18:30.706Z,99439.16
2023-05-14T11:21:05.703Z,99439.69
2023-05-14T11:23:34.569Z,99439.25
2023-05-14T11:26:04.025Z,99443.06
2023-05-14T11:28:32.597Z,99439.25
2023-05-14T11:31:02.112Z,99438.06
2023-05-14T11:33:33.966Z,99445.44
2023-05-14T11:36:06.066Z,99432.28
2023-05-14T11:38:36.389Z,99430.31
2023-05-14T11:41:08.938Z,99431.22
2023-05-14T11:43:38.460Z,99435.22
2023-05-14T11:46:12.635Z,99432.13
2023-05-14T11:48:42.411Z,99433.88
2023-05-14T11:51:15.313Z,99444.09
2023-05-14T11:53:49.631Z,99438.53
2023-05-14T11:56:34.090Z,99418.16
2023-05-14T11:59:03.347Z,99444.91
2023-05-14T12:01:44.966Z,99423.47
2023-05-14T12:04:37.308Z,99427.81
2023-05-14T12:07:24.099Z,99423.22
2023-05-14T12:09:58.483Z,99415.59
2023-05-14T12:12:54.907Z,99413.47
2023-05-14T12:15:37.256Z,99400.03
2023-05-14T12:18:27.120Z,99417.44
2023-05-14T12:21:30.168Z,99406.09
2023-05-14T12:24:34.412Z,99401.69
2023-05-14T12:27:19.448Z,99392.53
2023-05-14T12:29:48.103Z,99399.16
2023-05-14T12:32:20.597Z,99397.63
2023-05-14T12:34:55.748Z,99397.97
2023-05-14T12:37:29.423Z,99380.09
2023-05-14T12:40:10.060Z,99381.63
2023-05-14T12:45:42.893Z,99382.16
2023-05-14T12:52:17.308Z,99363.88
2023-05-14T13:01:57.298Z,99365.72
2023-05-14T13:04:27.323Z,99368.94
2023-05-14T13:07:02.890Z,99353.19
2023-05-14T13:09:43.917Z,99356.25
2023-05-14T13:12:19.817Z,99360.22
2023-05-14T13:15:06.264Z,99343.47
2023-05-14T13:17:37.811Z,99351.41
2023-05-14T13:20:10.231Z,99350.31
2023-05-14T13:22:39.377Z,99346.63
2023-05-14T13:25:09.183Z,99344.34
2023-05-14T13:27:39.709Z,99349.88
2023-05-14T13:30:10.341Z,99356.47
2023-05-14T13:32:45.313Z,99345.50
2023-05-14T13:35:14.582Z,99341.19
2023-05-14T13:37:48.995Z,99340.31
2023-05-14T13:40:19.301Z,99341.38
2023-05-14T13:42:49.778Z,99326.13
2023-05-14T13:45:18.926Z,99337.31
2023-05-14T13:47:49.478Z,99327.84
2023-05-14T13:50:18.690Z,99332.88
2023-05-14T13:52:50.136Z,99331.88
2023-05-14T13:55:20.369Z,99337.69
2023-05-14T13:57:52.022Z,99337.56
2023-05-14T14:00:21.465Z,99329.16
2023-05-14T14:02:54.427Z,99320.00
2023-05-14T14:05:28.585Z,99320.06
2023-05-14T14:08:17.904Z,99330.47
2023-05-14T14:10:55.835Z,99330.00
2023-05-14T14:13:29.643Z,99332.16
2023-05-14T14:15:58.809Z,99322.25
2023-05-14T14:18:29.344Z,99320.25
2023-05-14T14:20:58.966Z,99324.25
2023-05-14T14:23:29.684Z,99324.84
2023-05-14T14:26:00.122Z,99330.25
2023-05-14T14:28:32.581Z,99328.88
2023-05-14T14:31:06.576Z,99337.13
2023-05-14T14:33:35.767Z,99330.59
2023-05-14T14:36:06.313Z,99338.22
2023-05-14T14:42:07.944Z,99332.28
2023-05-14T14:44:44.547Z,99343.75
2023-05-14T14:47:13.313Z,99351.22
2023-05-14T14:49:49.705Z,99317.06
2023-05-14T14:52:32.445Z,99328.34
2023-05-14T14:55:07.191Z,99317.97
2023-05-14T14:57:36.473Z,99308.19
2023-05-14T15:00:15.098Z,99325.91
2023-05-14T15:02:55.187Z,99329.38
2023-05-14T15:05:26.234Z,99329.88
2023-05-14T15:08:08.028Z,99311.41
2023-05-14T15:10:38.370Z,99328.34
2023-05-14T15:13:36.784Z,99326.34
2023-05-14T15:16:24.033Z,99344.81
2023-05-14T15:19:27.168Z,99324.97
2023-05-14T15:25:14.968Z,99318.22
2023-05-14T15:27:47.294Z,99323.91
2023-05-14T15:30:23.478Z,99318.56
2023-05-14T15:33:46.051Z,99298.81
2023-05-14T15:36:53.940Z,99289.34
2023-05-14T15:39:26.296Z,99285.06
2023-05-14T15:42:12.311Z,99276.53
2023-05-14T15:44:48.018Z,99277.56
2023-05-14T15:48:08.614Z,99263.06
2023-05-14T15:50:52.765Z,99277.09
2023-05-14T15:53:46.627Z,99277.88
2023-05-14T15:56:41.157Z,99268.69
2023-05-14T15:59:33.070Z,99267.59
2023-05-14T16:02:16.292Z,99269.25
2023-05-14T16:05:05.196Z,99271.16
2023-05-14T16:16:07.858Z,99249.47
2023-05-14T16:19:55.365Z,99237.09
2023-05-14T16:34:09.877Z,99245.34
2023-05-14T16:40:46.595Z,99246.81
2023-05-14T16:47:15.434Z,99234.63
2023-05-14T16:50:10.986Z,99227.13
2023-05-14T16:53:29.036Z,99220.81
2023-05-14T17:00:19.963Z,99220.97
2023-05-14T17:03:02.031Z,99220.53
2023-05-14T17:06:16.220Z,99215.50
2023-05-14T17:09:16.370Z,99216.16
2023-05-14T17:12:09.198Z,99224.53
2023-05-14T17:15:00.478Z,99218.59
2023-05-14T17:17:57.577Z,99221.25
2023-05-14T17:20:59.384Z,99215.69
2023-05-14T17:24:14.787Z,99220.56
2023-05-14T17:27:20.290Z,99210.81
2023-05-14T17:30:20.626Z,99202.75
2023-05-14T17:33:14.791Z,99196.06
2023-05-14T17:39:52.317Z,99183.53
2023-05-14T17:43:22.818Z,99176.38
2023-05-14T17:49:56.153Z,99177.25
2023-05-14T17:52:52.919Z,99186.75
2023-05-14T17:55:23.250Z,99182.63
2023-05-14T17:58:02.669Z,99173.47
2023-05-14T18:00:48.730Z,99168.88
2023-05-14T18:04:29.271Z,99167.84
2023-05-14T18:07:13.520Z,99162.94
2023-05-14T18:10:30.234Z,99163.25
2023-05-14T18:13:21.680Z,99168.28
2023-05-14T18:16:43.903Z,99160.66
2023-05-14T18:19:30.694Z,99143.31
2023-05-14T18:22:05.417Z,99140.25
2023-05-14T18:24:40.938Z,99118.78
2023-05-14T18:27:32.685Z,99125.66
2023-05-14T18:30:33.136Z,99117.53
2023-05-14T18:33:54.158Z,99127.81
2023-05-14T18:36:28.667Z,99122.44
2023-05-14T18:39:01.545Z,99126.06
2023-05-14T18:42:02.081Z,99128.66
2023-05-14T18:44:46.857Z,99127.81
2023-05-14T18:47:33.106Z,99136.31
2023-05-14T18:50:27.184Z,99121.22
2023-05-14T18:53:00.444Z,99115.28
2023-05-14T18:55:35.239Z,99113.47
2023-05-14T18:58:15.879Z,99116.97
2023-05-14T19:00:57.335Z,99102.97
2023-05-14T19:03:48.506Z,99114.88
2023-05-14T19:06:33.880Z,99117.25
2023-05-14T19:12:42.356Z,99120.97
2023-05-14T19:15:41.526Z,99108.16
2023-05-14T19:18:44.655Z,99101.44
2023-05-14T19:21:45.745Z,99103.44
2023-05-14T19:24:36.850Z,99110.28
2023-05-14T19:27:36.197Z,99105.47
2023-05-14T19:30:23.647Z,99109.56
2023-05-14T19:32:53.555Z,99089.75
2023-05-14T20:06:10.855Z,99063.66
2023-05-14T20:08:30.382Z,99053.78
2023-05-14T20:11:06.793Z,99054.97
2023-05-14T20:16:37.204Z,99041.59
2023-05-14T20:19:21.326Z,99036.25
2023-05-14T20:22:12.596Z,99040.53
2023-05-14T20:24:42.189Z,99015.84
2023-05-14T20:27:20.418Z,99028.19
2023-05-14T20:29:54.601Z,99030.94
2023-05-14T20:32:25.218Z,99031.41
2023-05-14T20:35:02.660Z,99028.53
2023-05-14T20:37:54.832Z,99022.13
2023-05-14T20:41:01.956Z,98994.25
2023-05-14T20:43:35.977Z,98989.94
2023-05-14T20:49:34.485Z,98994.53
2023-05-14T20:52:10.890Z,98976.88
2023-05-14T20:55:01.413Z,98991.34
2023-05-14T20:57:31.408Z,98961.94
2023-05-14T21:00:00.047Z,98969.41
2023-05-14T21:03:35.834Z,98968.06
2023-05-14T21:05:23.501Z,98944.41
2023-05-14T21:07:52.840Z,98950.66
2023-05-14T21:10:26.862Z,98943.97
2023-05-14T21:13:12.663Z,98944.28
2023-05-14T21:15:43.247Z,98940.91
2023-05-14T21:18:19.521Z,98954.19
2023-05-14T21:20:57.997Z,98941.25
2023-05-14T21:23:34.796Z,98924.16
2023-05-14T21:38:10.766Z,98921.59
2023-05-14T21:44:18.039Z,98921.28
2023-05-14T21:47:09.305Z,98908.34
2023-05-14T21:50:19.598Z,98905.91
2023-05-14T21:53:11.801Z,98906.50
2023-05-14T21:56:05.273Z,98902.53
2023-05-14T21:59:04.099Z,98911.97
2023-05-14T22:02:06.946Z,98891.13
2023-05-14T22:04:40.459Z,98910.31
2023-05-14T22:07:11.726Z,98887.94
2023-05-14T22:10:06.151Z,98889.00
2023-05-14T22:12:45.364Z,98891.28
2023-05-14T22:15:22.563Z,98863.84
2023-05-14T22:18:12.249Z,98879.09
2023-05-14T22:20:46.523Z,98869.03
2023-05-14T22:23:15.708Z,98883.66
2023-05-14T22:26:04.104Z,98878.16
2023-05-14T22:28:57.663Z,98878.94
2023-05-14T22:32:04.205Z,98887.31
2023-05-14T22:34:40.189Z,98885.66
2023-05-14T22:37:24.959Z,98892.19
2023-05-14T22:40:13.980Z,98903.59
2023-05-14T22:42:52.615Z,98914.25
2023-05-14T22:45:25.975Z,98933.91
2023-05-14T22:48:14.902Z,98940.47
2023-05-14T22:55:33.214Z,98942.59
2023-05-14T22:59:10.573Z,98903.16
2023-05-14T23:02:26.038Z,98883.38
2023-05-14T23:06:01.232Z,98883.19
2023-05-14T23:09:04.158Z,98895.09
2023-05-14T23:11:43.156Z,98887.63
2023-05-14T23:14:15.536Z,98908.19
2023-05-14T23:16:44.562Z,98900.56
2023-05-14T23:23:31.863Z,98920.22
2023-05-14T23:26:40.280Z,98909.41
2023-05-14T23:30:09.676Z,98893.53
2023-05-14T23:34:04.877Z,98914.88
2023-05-14T23:37:16.052Z,98912.91
2023-05-14T23:40:00.672Z,98898.25
2023-05-14T23:43:27.747Z,98901.16
2023-05-14T23:45:59.472Z,98902.22
2023-05-14T23:48:43.185Z,98882.25
2023-05-14T23:51:15.102Z,98883.19
2023-05-14T23:54:23.837Z,98900.69
2023-05-14T23:57:26.870Z,98892.00
